sensor_id;sensor_type;location;lat;lon;timestamp;pressure;altitude;pressure_sealevel;temperature;humidity
2036;BME280;23642;42.658;23.350;2022-12-24T00:01:27;46709.75;;;-146.31;100.00
2036;BME280;23642;42.658;23.350;2022-12-24T00:03:53;46713.88;;;-146.31;100.00
2036;BME280;23642;42.658;23.350;2022-12-24T00:06:22;46722.09;;;-146.31;100.00
2036;BME280;23642;42.658;23.350;2022-12-24T00:08:51;46748.88;;;-146.31;100.00
2036;BME280;23642;42.658;23.350;2022-12-24T00:11:18;46705.63;;;-146.31;100.00
2036;BME280;23642;42.658;23.350;2022-12-24T00:13:45;46726.22;;;-146.31;100.00
2036;BME280;23642;42.658;23.350;2022-12-24T00:16:12;46693.25;;;-146.31;100.00
2036;BME280;23642;42.658;23.350;2022-12-24T00:18:39;46687.09;;;-146.31;100.00
2036;BME280;23642;42.658;23.350;2022-12-24T00:21:05;46682.97;;;-146.31;100.00
2036;BME280;23642;42.658;23.350;2022-12-24T00:23:32;46629.41;;;-146.31;100.00
2036;BME280;23642;42.658;23.350;2022-12-24T00:26:00;46650.00;;;-146.31;100.00
2036;BME280;23642;42.658;23.350;2022-12-24T00:28:27;46656.19;;;-146.31;100.00
2036;BME280;23642;42.658;23.350;2022-12-24T00:30:54;46635.59;;;-146.31;100.00
2036;BME280;23642;42.658;23.350;2022-12-24T00:33:20;46598.50;;;-146.31;100.00
2036;BME280;23642;42.658;23.350;2022-12-24T00:35:49;46627.34;;;-146.31;100.00
2036;BME280;23642;42.658;23.350;2022-12-24T00:38:16;46654.13;;;-146.31;100.00
2036;BME280;23642;42.658;23.350;2022-12-24T00:40:43;46643.81;;;-146.31;100.00
2036;BME280;23642;42.658;23.350;2022-12-24T00:43:11;46619.09;;;-146.31;100.00
2036;BME280;23642;42.658;23.350;2022-12-24T00:45:38;46639.72;;;-146.31;100.00
2036;BME280;23642;42.658;23.350;2022-12-24T00:48:05;46637.66;;;-146.31;100.00
2036;BME280;23642;42.658;23.350;2022-12-24T00:50:31;46606.75;;;-146.31;100.00
2036;BME280;23642;42.658;23.350;2022-12-24T00:52:58;46639.72;;;-146.31;100.00
2036;BME280;23642;42.658;23.350;2022-12-24T00:55:25;46604.69;;;-146.31;100.00
2036;BME280;23642;42.658;23.350;2022-12-24T00:57:52;46588.19;;;-146.31;100.00
2036;BME280;23642;42.658;23.350;2022-12-24T01:00:20;46584.09;;;-146.31;100.00
2036;BME280;23642;42.658;23.350;2022-12-24T01:02:47;46602.63;;;-146.31;100.00
2036;BME280;23642;42.658;23.350;2022-12-24T01:05:14;46602.63;;;-146.31;100.00
2036;BME280;23642;42.658;23.350;2022-12-24T01:07:41;46563.47;;;-146.31;100.00
2036;BME280;23642;42.658;23.350;2022-12-24T01:10:10;46573.78;;;-146.31;100.00
2036;BME280;23642;42.658;23.350;2022-12-24T01:12:37;46540.81;;;-146.31;100.00
2036;BME280;23642;42.658;23.350;2022-12-24T01:15:05;46481.09;;;-146.31;100.00
2036;BME280;23642;42.658;23.350;2022-12-24T01:17:34;46458.44;;;-146.31;100.00
2036;BME280;23642;42.658;23.350;2022-12-24T01:20:02;46483.13;;;-146.31;100.00
2036;BME280;23642;42.658;23.350;2022-12-24T01:22:29;46483.13;;;-146.31;100.00
2036;BME280;23642;42.658;23.350;2022-12-24T01:24:55;46433.69;;;-146.31;100.00
2036;BME280;23642;42.658;23.350;2022-12-24T01:27:22;46452.25;;;-146.31;100.00
2036;BME280;23642;42.658;23.350;2022-12-24T01:29:49;46419.28;;;-146.31;100.00
2036;BME280;23642;42.658;23.350;2022-12-24T01:32:16;46439.88;;;-146.31;100.00
2036;BME280;23642;42.658;23.350;2022-12-24T01:34:44;46439.88;;;-146.31;100.00
2036;BME280;23642;42.658;23.350;2022-12-24T01:37:10;46439.88;;;-146.31;100.00
2036;BME280;23642;42.658;23.350;2022-12-24T01:39:37;46437.81;;;-146.31;100.00
2036;BME280;23642;42.658;23.350;2022-12-24T01:42:16;46450.19;;;-146.31;100.00
2036;BME280;23642;42.658;23.350;2022-12-24T01:48:01;46421.34;;;-146.31;100.00
2036;BME280;23642;42.658;23.350;2022-12-24T01:50:29;46390.44;;;-146.31;100.00
2036;BME280;23642;42.658;23.350;2022-12-24T01:52:56;46408.97;;;-146.31;100.00
2036;BME280;23642;42.658;23.350;2022-12-24T01:55:25;46425.47;;;-146.31;100.00
2036;BME280;23642;42.658;23.350;2022-12-24T01:57:54;46400.75;;;-146.31;100.00
2036;BME280;23642;42.658;23.350;2022-12-24T02:00:22;46421.34;;;-146.31;100.00
2036;BME280;23642;42.658;23.350;2022-12-24T02:02:50;46365.72;;;-146.31;100.00
2036;BME280;23642;42.658;23.350;2022-12-24T02:05:22;46390.44;;;-146.31;100.00
2036;BME280;23642;42.658;23.350;2022-12-24T02:07:51;46390.44;;;-146.31;100.00
2036;BME280;23642;42.658;23.350;2022-12-24T02:10:18;46380.16;;;-146.31;100.00
2036;BME280;23642;42.658;23.350;2022-12-24T02:12:46;46382.22;;;-146.31;100.00
2036;BME280;23642;42.658;23.350;2022-12-24T02:15:15;46349.25;;;-146.31;100.00
2036;BME280;23642;42.658;23.350;2022-12-24T02:17:46;46345.13;;;-146.31;100.00
2036;BME280;23642;42.658;23.350;2022-12-24T02:20:34;46310.09;;;-146.31;100.00
2036;BME280;23642;42.658;23.350;2022-12-24T02:23:24;46359.53;;;-146.31;100.00
2036;BME280;23642;42.658;23.350;2022-12-24T02:26:06;46310.09;;;-146.31;100.00
2036;BME280;23642;42.658;23.350;2022-12-24T02:28:51;46310.09;;;-146.31;100.00
2036;BME280;23642;42.658;23.350;2022-12-24T02:31:27;46310.09;;;-146.31;100.00
2036;BME280;23642;42.658;23.350;2022-12-24T02:34:01;46262.72;;;-146.31;100.00
2036;BME280;23642;42.658;23.350;2022-12-24T02:36:32;46297.75;;;-146.31;100.00
2036;BME280;23642;42.658;23.350;2022-12-24T02:39:04;46264.78;;;-146.31;100.00
2036;BME280;23642;42.658;23.350;2022-12-24T02:41:34;46277.16;;;-146.31;100.00
2036;BME280;23642;42.658;23.350;2022-12-24T02:44:15;46235.94;;;-146.31;100.00
2036;BME280;23642;42.658;23.350;2022-12-24T02:46:45;46250.38;;;-146.31;100.00
2036;BME280;23642;42.658;23.350;2022-12-24T02:49:13;46262.72;;;-146.31;100.00
2036;BME280;23642;42.658;23.350;2022-12-24T02:51:39;46219.47;;;-146.31;100.00
2036;BME280;23642;42.658;23.350;2022-12-24T02:54:06;46246.25;;;-146.31;100.00
2036;BME280;23642;42.658;23.350;2022-12-24T02:56:47;46242.13;;;-146.31;100.00
2036;BME280;23642;42.658;23.350;2022-12-24T02:59:33;46211.25;;;-146.31;100.00
2036;BME280;23642;42.658;23.350;2022-12-24T03:02:12;46205.06;;;-146.31;100.00
2036;BME280;23642;42.658;23.350;2022-12-24T03:04:49;46170.03;;;-146.31;100.00
2036;BME280;23642;42.658;23.350;2022-12-24T03:07:25;46157.69;;;-146.31;100.00
2036;BME280;23642;42.658;23.350;2022-12-24T03:10:05;46157.69;;;-146.31;100.00
2036;BME280;23642;42.658;23.350;2022-12-24T03:12:38;46151.50;;;-146.31;100.00
2036;BME280;23642;42.658;23.350;2022-12-24T03:15:08;46147.38;;;-146.31;100.00
2036;BME280;23642;42.658;23.350;2022-12-24T03:17:39;46120.59;;;-146.31;100.00
2036;BME280;23642;42.658;23.350;2022-12-24T03:20:09;46112.38;;;-146.31;100.00
2036;BME280;23642;42.658;23.350;2022-12-24T03:22:37;46095.88;;;-146.31;100.00
2036;BME280;23642;42.658;23.350;2022-12-24T03:25:04;46122.66;;;-146.31;100.00
2036;BME280;23642;42.658;23.350;2022-12-24T03:27:33;46112.38;;;-146.31;100.00
2036;BME280;23642;42.658;23.350;2022-12-24T03:30:02;46110.31;;;-146.31;100.00
2036;BME280;23642;42.658;23.350;2022-12-24T03:32:30;46126.78;;;-146.31;100.00
2036;BME280;23642;42.658;23.350;2022-12-24T03:34:59;46112.38;;;-146.31;100.00
2036;BME280;23642;42.658;23.350;2022-12-24T03:37:26;46106.19;;;-146.31;100.00
2036;BME280;23642;42.658;23.350;2022-12-24T03:39:53;46104.13;;;-146.31;100.00
2036;BME280;23642;42.658;23.350;2022-12-24T03:42:19;46075.28;;;-146.31;100.00
2036;BME280;23642;42.658;23.350;2022-12-24T03:44:46;46102.06;;;-146.31;100.00
2036;BME280;23642;42.658;23.350;2022-12-24T03:47:13;46116.50;;;-146.31;100.00
2036;BME280;23642;42.658;23.350;2022-12-24T03:49:40;46075.28;;;-146.31;100.00
2036;BME280;23642;42.658;23.350;2022-12-24T03:52:08;46071.16;;;-146.31;100.00
2036;BME280;23642;42.658;23.350;2022-12-24T03:54:35;46071.16;;;-146.31;100.00
2036;BME280;23642;42.658;23.350;2022-12-24T03:57:01;46040.28;;;-146.31;100.00
2036;BME280;23642;42.658;23.350;2022-12-24T03:59:28;46058.81;;;-146.31;100.00
2036;BME280;23642;42.658;23.350;2022-12-24T04:01:55;45999.09;;;-146.31;100.00
2036;BME280;23642;42.658;23.350;2022-12-24T04:04:22;45994.97;;;-146.31;100.00
2036;BME280;23642;42.658;23.350;2022-12-24T04:06:49;45999.09;;;-146.31;100.00
2036;BME280;23642;42.658;23.350;2022-12-24T04:09:17;45951.72;;;-146.31;100.00
2036;BME280;23642;42.658;23.350;2022-12-24T04:11:44;45964.06;;;-146.31;100.00
2036;BME280;23642;42.658;23.350;2022-12-24T04:14:11;45959.94;;;-146.31;100.00
2036;BME280;23642;42.658;23.350;2022-12-24T04:16:37;45968.19;;;-146.31;100.00
2036;BME280;23642;42.658;23.350;2022-12-24T04:19:04;45929.06;;;-146.31;100.00
2036;BME280;23642;42.658;23.350;2022-12-24T04:21:31;45933.19;;;-146.31;100.00
2036;BME280;23642;42.658;23.350;2022-12-24T04:23:57;45922.88;;;-146.31;100.00
2036;BME280;23642;42.658;23.350;2022-12-24T04:26:25;45914.63;;;-146.31;100.00
2036;BME280;23642;42.658;23.350;2022-12-24T04:28:52;45912.56;;;-146.31;100.00
2036;BME280;23642;42.658;23.350;2022-12-24T04:31:19;45927.00;;;-146.31;100.00
2036;BME280;23642;42.658;23.350;2022-12-24T04:33:46;45943.47;;;-146.31;100.00
2036;BME280;23642;42.658;23.350;2022-12-24T04:36:14;45922.88;;;-146.31;100.00
2036;BME280;23642;42.658;23.350;2022-12-24T04:38:41;45898.16;;;-146.31;100.00
2036;BME280;23642;42.658;23.350;2022-12-24T04:41:11;45896.09;;;-146.31;100.00
2036;BME280;23642;42.658;23.350;2022-12-24T04:43:40;45887.88;;;-146.31;100.00
2036;BME280;23642;42.658;23.350;2022-12-24T04:46:08;45863.16;;;-146.31;100.00
2036;BME280;23642;42.658;23.350;2022-12-24T04:48:35;45873.44;;;-146.31;100.00
2036;BME280;23642;42.658;23.350;2022-12-24T04:51:04;45859.03;;;-146.31;100.00
2036;BME280;23642;42.658;23.350;2022-12-24T04:53:31;45865.22;;;-146.31;100.00
2036;BME280;23642;42.658;23.350;2022-12-24T04:55:59;45848.72;;;-146.31;100.00
2036;BME280;23642;42.658;23.350;2022-12-24T04:58:26;45852.84;;;-146.31;100.00
2036;BME280;23642;42.658;23.350;2022-12-24T05:00:55;45869.31;;;-146.31;100.00
2036;BME280;23642;42.658;23.350;2022-12-24T05:03:24;45856.97;;;-146.31;100.00
2036;BME280;23642;42.658;23.350;2022-12-24T05:05:50;45871.38;;;-146.31;100.00
2036;BME280;23642;42.658;23.350;2022-12-24T05:08:17;45885.81;;;-146.31;100.00
2036;BME280;23642;42.658;23.350;2022-12-24T05:10:44;45881.69;;;-146.31;100.00
2036;BME280;23642;42.658;23.350;2022-12-24T05:13:19;45856.97;;;-146.31;100.00
2036;BME280;23642;42.658;23.350;2022-12-24T05:15:48;45832.25;;;-146.31;100.00
2036;BME280;23642;42.658;23.350;2022-12-24T05:18:18;45828.13;;;-146.31;100.00
2036;BME280;23642;42.658;23.350;2022-12-24T05:20:45;45828.13;;;-146.31;100.00
2036;BME280;23642;42.658;23.350;2022-12-24T05:23:15;45824.00;;;-146.31;100.00
2036;BME280;23642;42.658;23.350;2022-12-24T05:25:59;45828.13;;;-146.31;100.00
2036;BME280;23642;42.658;23.350;2022-12-24T05:28:43;45784.88;;;-146.31;100.00
2036;BME280;23642;42.658;23.350;2022-12-24T05:31:10;45772.53;;;-146.31;100.00
2036;BME280;23642;42.658;23.350;2022-12-24T05:33:38;45782.81;;;-146.31;100.00
2036;BME280;23642;42.658;23.350;2022-12-24T05:36:05;45745.75;;;-146.31;100.00
2036;BME280;23642;42.658;23.350;2022-12-24T05:38:32;45721.03;;;-146.31;100.00
2036;BME280;23642;42.658;23.350;2022-12-24T05:40:59;45712.81;;;-146.31;100.00
2036;BME280;23642;42.658;23.350;2022-12-24T05:43:26;45655.13;;;-146.31;100.00
2036;BME280;23642;42.658;23.350;2022-12-24T05:45:57;45671.59;;;-146.31;100.00
2036;BME280;23642;42.658;23.350;2022-12-24T05:48:23;45667.50;;;-146.31;100.00
2036;BME280;23642;42.658;23.350;2022-12-24T05:50:52;45630.41;;;-146.31;100.00
2036;BME280;23642;42.658;23.350;2022-12-24T05:53:18;45630.41;;;-146.31;100.00
2036;BME280;23642;42.658;23.350;2022-12-24T05:55:45;45618.06;;;-146.31;100.00
2036;BME280;23642;42.658;23.350;2022-12-24T05:58:12;45597.47;;;-146.31;100.00
2036;BME280;23642;42.658;23.350;2022-12-24T06:00:39;45613.94;;;-146.31;100.00
2036;BME280;23642;42.658;23.350;2022-12-24T06:03:05;45589.22;;;-146.31;100.00
2036;BME280;23642;42.658;23.350;2022-12-24T06:05:32;45576.88;;;-146.31;100.00
2036;BME280;23642;42.658;23.350;2022-12-24T06:08:00;45556.28;;;-146.31;100.00
2036;BME280;23642;42.658;23.350;2022-12-24T06:10:27;45593.34;;;-146.31;100.00
2036;BME280;23642;42.658;23.350;2022-12-24T06:12:54;45568.63;;;-146.31;100.00
2036;BME280;23642;42.658;23.350;2022-12-24T06:15:21;45607.75;;;-146.31;100.00
2036;BME280;23642;42.658;23.350;2022-12-24T06:17:48;45611.88;;;-146.31;100.00
2036;BME280;23642;42.658;23.350;2022-12-24T06:20:14;45659.25;;;-146.31;100.00
2036;BME280;23642;42.658;23.350;2022-12-24T06:22:41;45630.41;;;-146.31;100.00
2036;BME280;23642;42.658;23.350;2022-12-24T06:25:09;45651.00;;;-146.31;100.00
2036;BME280;23642;42.658;23.350;2022-12-24T06:27:36;45675.72;;;-146.31;100.00
2036;BME280;23642;42.658;23.350;2022-12-24T06:30:04;45655.13;;;-146.31;100.00
2036;BME280;23642;42.658;23.350;2022-12-24T06:32:31;45725.16;;;-146.31;100.00
2036;BME280;23642;42.658;23.350;2022-12-24T06:34:58;45708.69;;;-146.31;100.00
2036;BME280;23642;42.658;23.350;2022-12-24T06:37:24;45721.03;;;-146.31;100.00
2036;BME280;23642;42.658;23.350;2022-12-24T06:39:51;45762.22;;;-146.31;100.00
2036;BME280;23642;42.658;23.350;2022-12-24T06:42:22;45770.47;;;-146.31;100.00
2036;BME280;23642;42.658;23.350;2022-12-24T06:44:48;45762.22;;;-146.31;100.00
2036;BME280;23642;42.658;23.350;2022-12-24T06:47:15;45762.22;;;-146.31;100.00
2036;BME280;23642;42.658;23.350;2022-12-24T06:49:42;45778.69;;;-146.31;100.00
2036;BME280;23642;42.658;23.350;2022-12-24T06:52:08;45778.69;;;-146.31;100.00
2036;BME280;23642;42.658;23.350;2022-12-24T06:54:35;45838.44;;;-146.31;100.00
2036;BME280;23642;42.658;23.350;2022-12-24T06:57:02;45873.44;;;-146.31;100.00
2036;BME280;23642;42.658;23.350;2022-12-24T06:59:30;45875.50;;;-146.31;100.00
2036;BME280;23642;42.658;23.350;2022-12-24T07:01:57;45947.59;;;-146.31;100.00
2036;BME280;23642;42.658;23.350;2022-12-24T07:04:24;45945.53;;;-146.31;100.00
2036;BME280;23642;42.658;23.350;2022-12-24T07:06:51;45945.53;;;-146.31;100.00
2036;BME280;23642;42.658;23.350;2022-12-24T07:09:17;45889.91;;;-146.31;100.00
2036;BME280;23642;42.658;23.350;2022-12-24T07:11:44;45832.25;;;-146.31;100.00
2036;BME280;23642;42.658;23.350;2022-12-24T07:14:11;45774.59;;;-146.31;100.00
2036;BME280;23642;42.658;23.350;2022-12-24T07:16:39;45754.00;;;-146.31;100.00
2036;BME280;23642;42.658;23.350;2022-12-24T07:19:06;45811.66;;;-146.31;100.00
2036;BME280;23642;42.658;23.350;2022-12-24T07:21:32;45865.22;;;-146.31;100.00
2036;BME280;23642;42.658;23.350;2022-12-24T07:23:59;45920.81;;;-146.31;100.00
2036;BME280;23642;42.658;23.350;2022-12-24T07:26:28;46021.75;;;-146.31;100.00
2036;BME280;23642;42.658;23.350;2022-12-24T07:28:55;46188.56;;;-146.31;100.00
2036;BME280;23642;42.658;23.350;2022-12-24T07:31:22;46388.38;;;-146.31;100.00
2036;BME280;23642;42.658;23.350;2022-12-24T07:33:50;46612.91;;;-146.31;100.00
2036;BME280;23642;42.658;23.350;2022-12-24T07:36:19;46693.25;;;-146.31;100.00
2036;BME280;23642;42.658;23.350;2022-12-24T07:38:46;46718.00;;;-146.31;100.00
2036;BME280;23642;42.658;23.350;2022-12-24T07:41:13;46874.56;;;-146.31;100.00
2036;BME280;23642;42.658;23.350;2022-12-24T07:43:40;46977.56;;;-146.31;99.74
2036;BME280;23642;42.658;23.350;2022-12-24T07:46:07;47323.72;;;-146.31;97.35
2036;BME280;23642;42.658;23.350;2022-12-24T07:48:36;47601.91;;;-146.31;96.18
2036;BME280;23642;42.658;23.350;2022-12-24T07:51:05;47898.66;;;-146.31;94.51
2036;BME280;23642;42.658;23.350;2022-12-24T07:53:31;48036.72;;;-146.31;94.36
2036;BME280;23642;42.658;23.350;2022-12-24T07:55:59;48055.28;;;-146.31;93.76
2036;BME280;23642;42.658;23.350;2022-12-24T07:58:29;48143.91;;;-146.31;93.76
2036;BME280;23642;42.658;23.350;2022-12-24T08:00:56;48360.31;;;-146.31;91.56
2036;BME280;23642;42.658;23.350;2022-12-24T08:03:23;48395.34;;;-146.31;91.86
2036;BME280;23642;42.658;23.350;2022-12-24T08:05:50;48613.81;;;-146.31;89.78
2036;BME280;23642;42.658;23.350;2022-12-24T08:08:19;48725.13;;;-146.31;88.29
2036;BME280;23642;42.658;23.350;2022-12-24T08:10:46;48918.91;;;-146.31;87.34
2036;BME280;23642;42.658;23.350;2022-12-24T08:13:13;49026.13;;;-146.31;86.00
2036;BME280;23642;42.658;23.350;2022-12-24T08:15:40;49178.66;;;-146.31;85.42
2036;BME280;23642;42.658;23.350;2022-12-24T08:18:07;49215.78;;;-146.31;84.78
2036;BME280;23642;42.658;23.350;2022-12-24T08:20:45;49335.34;;;-146.31;84.46
2036;BME280;23642;42.658;23.350;2022-12-24T08:23:12;49446.69;;;-146.31;82.79
2036;BME280;23642;42.658;23.350;2022-12-24T08:25:43;49555.97;;;-146.31;81.20
2036;BME280;23642;42.658;23.350;2022-12-24T08:28:10;49661.13;;;-146.31;80.62
2036;BME280;23642;42.658;23.350;2022-12-24T08:30:37;49716.78;;;-146.31;81.27
2036;BME280;23642;42.658;23.350;2022-12-24T08:33:04;49727.09;;;-146.31;81.25
2036;BME280;23642;42.658;23.350;2022-12-24T08:35:31;49747.72;;;-146.31;81.77
2036;BME280;23642;42.658;23.350;2022-12-24T08:37:57;49725.03;;;-146.31;83.17
2036;BME280;23642;42.658;23.350;2022-12-24T08:40:25;49696.19;;;-146.31;83.89
2036;BME280;23642;42.658;23.350;2022-12-24T08:42:53;49692.06;;;-146.31;83.67
2036;BME280;23642;42.658;23.350;2022-12-24T08:45:19;49690.00;;;-146.31;82.38
2036;BME280;23642;42.658;23.350;2022-12-24T08:47:46;49743.59;;;-146.31;81.87
2036;BME280;23642;42.658;23.350;2022-12-24T08:50:13;49793.09;;;-146.31;82.01
2036;BME280;23642;42.658;23.350;2022-12-24T08:52:40;49770.41;;;-146.31;81.85
2036;BME280;23642;42.658;23.350;2022-12-24T08:55:07;49776.59;;;-146.31;80.62
2036;BME280;23642;42.658;23.350;2022-12-24T08:57:34;49799.28;;;-146.31;82.42
2036;BME280;23642;42.658;23.350;2022-12-24T09:00:03;49832.25;;;-146.31;82.39
2036;BME280;23642;42.658;23.350;2022-12-24T09:02:30;49828.13;;;-146.31;83.03
2036;BME280;23642;42.658;23.350;2022-12-24T09:04:57;49797.22;;;-146.31;83.20
2036;BME280;23642;42.658;23.350;2022-12-24T09:07:24;49821.97;;;-146.31;84.01
2036;BME280;23642;42.658;23.350;2022-12-24T09:09:53;49791.03;;;-146.31;84.65
2036;BME280;23642;42.658;23.350;2022-12-24T09:12:20;49815.78;;;-146.31;85.31
2036;BME280;23642;42.658;23.350;2022-12-24T09:14:47;49782.78;;;-146.31;84.86
2036;BME280;23642;42.658;23.350;2022-12-24T09:17:17;49772.47;;;-146.31;84.09
2036;BME280;23642;42.658;23.350;2022-12-24T09:19:43;49809.59;;;-146.31;84.49
2036;BME280;23642;42.658;23.350;2022-12-24T09:22:10;49782.78;;;-146.31;84.11
2036;BME280;23642;42.658;23.350;2022-12-24T09:24:37;49842.56;;;-146.31;82.00
2036;BME280;23642;42.658;23.350;2022-12-24T09:27:04;49826.06;;;-146.31;80.33
2036;BME280;23642;42.658;23.350;2022-12-24T09:29:31;49871.44;;;-146.31;80.36
2036;BME280;23642;42.658;23.350;2022-12-24T09:31:58;49912.69;;;-146.31;80.82
2036;BME280;23642;42.658;23.350;2022-12-24T09:34:26;49890.00;;;-146.31;80.02
2036;BME280;23642;42.658;23.350;2022-12-24T09:36:53;49929.19;;;-146.31;78.47
2036;BME280;23642;42.658;23.350;2022-12-24T09:39:19;49962.19;;;-146.31;78.16
2036;BME280;23642;42.658;23.350;2022-12-24T09:41:53;49991.03;;;-146.31;78.65
2036;BME280;23642;42.658;23.350;2022-12-24T09:44:32;50019.91;;;-146.31;78.32
2036;BME280;23642;42.658;23.350;2022-12-24T09:47:07;50030.22;;;-146.31;77.64
2036;BME280;23642;42.658;23.350;2022-12-24T09:49:41;50040.53;;;-146.31;78.19
2036;BME280;23642;42.658;23.350;2022-12-24T09:52:12;50077.66;;;-146.31;78.57
2036;BME280;23642;42.658;23.350;2022-12-24T09:54:43;50094.16;;;-146.31;80.26
2036;BME280;23642;42.658;23.350;2022-12-24T09:57:15;50123.03;;;-146.31;80.98
2036;BME280;23642;42.658;23.350;2022-12-24T09:59:45;50112.72;;;-146.31;80.97
2036;BME280;23642;42.658;23.350;2022-12-24T10:02:14;50102.41;;;-146.31;82.01
2036;BME280;23642;42.658;23.350;2022-12-24T10:04:44;50077.66;;;-146.31;81.97
2036;BME280;23642;42.658;23.350;2022-12-24T10:07:23;50065.28;;;-146.31;81.07
2036;BME280;23642;42.658;23.350;2022-12-24T10:10:03;50110.66;;;-146.31;80.15
2036;BME280;23642;42.658;23.350;2022-12-24T10:12:38;50135.41;;;-146.31;81.00
2036;BME280;23642;42.658;23.350;2022-12-24T10:15:12;50129.22;;;-146.31;82.77
2036;BME280;23642;42.658;23.350;2022-12-24T10:17:51;50135.41;;;-146.31;81.64
2036;BME280;23642;42.658;23.350;2022-12-24T10:20:40;50158.09;;;-146.31;81.67
2036;BME280;23642;42.658;23.350;2022-12-24T10:23:15;50153.97;;;-146.31;83.03
2036;BME280;23642;42.658;23.350;2022-12-24T10:25:47;50149.84;;;-146.31;83.14
2036;BME280;23642;42.658;23.350;2022-12-24T10:28:18;50162.22;;;-146.31;82.49
2036;BME280;23642;42.658;23.350;2022-12-24T10:30:47;50160.13;;;-146.31;82.94
2036;BME280;23642;42.658;23.350;2022-12-24T10:33:18;50141.59;;;-146.31;80.60
2036;BME280;23642;42.658;23.350;2022-12-24T10:35:52;50160.13;;;-146.31;80.81
2036;BME280;23642;42.658;23.350;2022-12-24T10:38:20;50129.22;;;-146.31;79.79
2036;BME280;23642;42.658;23.350;2022-12-24T10:40:49;50145.72;;;-146.31;80.50
2036;BME280;23642;42.658;23.350;2022-12-24T10:43:18;50172.50;;;-146.31;80.73
2036;BME280;23642;42.658;23.350;2022-12-24T10:45:47;50170.44;;;-146.31;80.17
2036;BME280;23642;42.658;23.350;2022-12-24T10:48:21;50147.78;;;-146.31;80.25
2036;BME280;23642;42.658;23.350;2022-12-24T10:50:58;50156.03;;;-146.31;78.85
2036;BME280;23642;42.658;23.350;2022-12-24T10:53:37;50172.50;;;-146.31;79.33
2036;BME280;23642;42.658;23.350;2022-12-24T10:56:08;50120.97;;;-146.31;78.92
2036;BME280;23642;42.658;23.350;2022-12-24T10:58:35;50172.50;;;-146.31;78.12
2036;BME280;23642;42.658;23.350;2022-12-24T11:01:03;50174.56;;;-146.31;78.62
2036;BME280;23642;42.658;23.350;2022-12-24T11:03:31;50120.97;;;-146.31;77.80
2036;BME280;23642;42.658;23.350;2022-12-24T11:06:05;50164.25;;;-146.31;77.20
2036;BME280;23642;42.658;23.350;2022-12-24T11:08:33;50176.63;;;-146.31;77.60
2036;BME280;23642;42.658;23.350;2022-12-24T11:11:02;50222.00;;;-146.31;78.62
2036;BME280;23642;42.658;23.350;2022-12-24T11:13:59;50166.31;;;-146.31;79.17
2036;BME280;23642;42.658;23.350;2022-12-24T11:16:46;50189.00;;;-146.31;77.97
2036;BME280;23642;42.658;23.350;2022-12-24T11:19:22;50203.44;;;-146.31;77.10
2036;BME280;23642;42.658;23.350;2022-12-24T11:22:01;50259.13;;;-146.31;76.61
2036;BME280;23642;42.658;23.350;2022-12-24T11:24:35;50197.25;;;-146.31;76.48
2036;BME280;23642;42.658;23.350;2022-12-24T11:27:31;50199.31;;;-146.31;75.30
2036;BME280;23642;42.658;23.350;2022-12-24T11:30:27;50255.00;;;-146.31;73.85
2036;BME280;23642;42.658;23.350;2022-12-24T11:33:19;50296.25;;;-146.31;73.76
2036;BME280;23642;42.658;23.350;2022-12-24T11:35:55;50339.56;;;-146.31;73.18
2036;BME280;23642;42.658;23.350;2022-12-24T11:38:26;50250.88;;;-146.31;72.40
2036;BME280;23642;42.658;23.350;2022-12-24T11:41:00;50271.50;;;-146.31;71.90
2036;BME280;23642;42.658;23.350;2022-12-24T11:43:35;50354.00;;;-146.31;71.70
2036;BME280;23642;42.658;23.350;2022-12-24T11:46:19;50370.50;;;-146.31;71.29
2036;BME280;23642;42.658;23.350;2022-12-24T11:48:48;50370.50;;;-146.31;72.31
2036;BME280;23642;42.658;23.350;2022-12-24T11:51:31;50387.00;;;-146.31;72.87
2036;BME280;23642;42.658;23.350;2022-12-24T11:54:08;50391.13;;;-146.31;70.77
2036;BME280;23642;42.658;23.350;2022-12-24T11:56:42;50407.63;;;-146.31;70.75
2036;BME280;23642;42.658;23.350;2022-12-24T11:59:20;50440.63;;;-146.31;71.82
2036;BME280;23642;42.658;23.350;2022-12-24T12:02:16;50442.69;;;-146.31;71.97
2036;BME280;23642;42.658;23.350;2022-12-24T12:04:55;50403.50;;;-146.31;71.47
2036;BME280;23642;42.658;23.350;2022-12-24T12:07:26;50467.44;;;-146.31;71.36
2036;BME280;23642;42.658;23.350;2022-12-24T12:10:03;50477.75;;;-146.31;72.21
2036;BME280;23642;42.658;23.350;2022-12-24T12:12:39;50448.88;;;-146.31;72.00
2036;BME280;23642;42.658;23.350;2022-12-24T12:15:14;50450.94;;;-146.31;70.03
2036;BME280;23642;42.658;23.350;2022-12-24T12:17:47;50440.63;;;-146.31;69.74
2036;BME280;23642;42.658;23.350;2022-12-24T12:20:18;50502.50;;;-146.31;68.88
2036;BME280;23642;42.658;23.350;2022-12-24T12:22:58;50496.31;;;-146.31;69.37
2036;BME280;23642;42.658;23.350;2022-12-24T12:25:32;50512.81;;;-146.31;69.33
2036;BME280;23642;42.658;23.350;2022-12-24T12:28:12;50531.38;;;-146.31;70.00
2036;BME280;23642;42.658;23.350;2022-12-24T12:30:59;50545.81;;;-146.31;70.17
2036;BME280;23642;42.658;23.350;2022-12-24T12:33:34;50558.19;;;-146.31;70.28
2036;BME280;23642;42.658;23.350;2022-12-24T12:36:07;50568.50;;;-146.31;69.74
2036;BME280;23642;42.658;23.350;2022-12-24T12:38:36;50576.75;;;-146.31;70.10
2036;BME280;23642;42.658;23.350;2022-12-24T12:41:22;50595.31;;;-146.31;71.20
2036;BME280;23642;42.658;23.350;2022-12-24T12:50:05;50618.00;;;-146.31;71.42
2036;BME280;23642;42.658;23.350;2022-12-24T12:52:44;50580.88;;;-146.31;70.75
2036;BME280;23642;42.658;23.350;2022-12-24T12:55:25;50589.13;;;-146.31;71.05
2036;BME280;23642;42.658;23.350;2022-12-24T12:58:01;50578.81;;;-146.31;71.01